sensor_id;sensor_type;location;lat;lon;timestamp;temperature;humidity
14877;DHT22;69691;48.172;17.070;2023-07-02T00:01:52;22.20;64.20
14877;DHT22;69691;48.172;17.070;2023-07-02T00:04:18;22.20;64.30
14877;DHT22;69691;48.172;17.070;2023-07-02T00:06:47;22.20;64.30
14877;DHT22;69691;48.172;17.070;2023-07-02T00:09:14;22.20;64.30
14877;DHT22;69691;48.172;17.070;2023-07-02T00:11:42;22.20;64.30
14877;DHT22;69691;48.172;17.070;2023-07-02T00:14:09;22.20;64.30
14877;DHT22;69691;48.172;17.070;2023-07-02T00:16:38;22.10;64.40
14877;DHT22;69691;48.172;17.070;2023-07-02T00:19:07;22.10;64.50
14877;DHT22;69691;48.172;17.070;2023-07-02T00:21:32;22.10;64.60
14877;DHT22;69691;48.172;17.070;2023-07-02T00:23:59;22.00;64.60
14877;DHT22;69691;48.172;17.070;2023-07-02T00:26:27;22.00;64.80
14877;DHT22;69691;48.172;17.070;2023-07-02T00:28:54;21.90;65.10
14877;DHT22;69691;48.172;17.070;2023-07-02T00:31:21;21.80;65.30
14877;DHT22;69691;48.172;17.070;2023-07-02T00:33:49;21.80;66.30
14877;DHT22;69691;48.172;17.070;2023-07-02T00:36:16;21.70;65.70
14877;DHT22;69691;48.172;17.070;2023-07-02T00:38:43;21.60;66.20
14877;DHT22;69691;48.172;17.070;2023-07-02T00:41:10;21.50;66.50
14877;DHT22;69691;48.172;17.070;2023-07-02T00:43:37;21.50;66.90
14877;DHT22;69691;48.172;17.070;2023-07-02T00:46:17;21.50;67.00
14877;DHT22;69691;48.172;17.070;2023-07-02T00:48:55;21.40;67.10
14877;DHT22;69691;48.172;17.070;2023-07-02T00:51:26;21.30;67.70
14877;DHT22;69691;48.172;17.070;2023-07-02T00:53:56;21.30;67.70
14877;DHT22;69691;48.172;17.070;2023-07-02T00:56:23;21.20;68.50
14877;DHT22;69691;48.172;17.070;2023-07-02T00:58:53;21.10;68.00
14877;DHT22;69691;48.172;17.070;2023-07-02T01:01:24;21.10;68.30
14877;DHT22;69691;48.172;17.070;2023-07-02T01:03:58;21.00;68.70
14877;DHT22;69691;48.172;17.070;2023-07-02T01:06:27;21.00;68.90
14877;DHT22;69691;48.172;17.070;2023-07-02T01:08:56;21.00;69.20
14877;DHT22;69691;48.172;17.070;2023-07-02T01:11:35;20.90;69.50
14877;DHT22;69691;48.172;17.070;2023-07-02T01:14:15;20.90;69.60
14877;DHT22;69691;48.172;17.070;2023-07-02T01:16:47;20.80;69.80
14877;DHT22;69691;48.172;17.070;2023-07-02T01:19:21;20.80;70.40
14877;DHT22;69691;48.172;17.070;2023-07-02T01:21:49;20.80;70.30
14877;DHT22;69691;48.172;17.070;2023-07-02T01:24:16;20.70;70.60
14877;DHT22;69691;48.172;17.070;2023-07-02T01:26:43;20.70;70.90
14877;DHT22;69691;48.172;17.070;2023-07-02T01:31:44;20.70;71.00
14877;DHT22;69691;48.172;17.070;2023-07-02T01:34:10;20.70;70.60
14877;DHT22;69691;48.172;17.070;2023-07-02T01:36:37;20.60;71.70
14877;DHT22;69691;48.172;17.070;2023-07-02T01:39:04;20.60;72.00
14877;DHT22;69691;48.172;17.070;2023-07-02T01:41:37;20.70;71.70
14877;DHT22;69691;48.172;17.070;2023-07-02T01:44:08;20.70;71.40
14877;DHT22;69691;48.172;17.070;2023-07-02T01:46:34;20.80;71.20
14877;DHT22;69691;48.172;17.070;2023-07-02T01:49:00;20.80;71.00
14877;DHT22;69691;48.172;17.070;2023-07-02T01:51:26;20.80;71.10
14877;DHT22;69691;48.172;17.070;2023-07-02T01:53:51;20.90;70.90
14877;DHT22;69691;48.172;17.070;2023-07-02T01:56:17;20.90;71.10
14877;DHT22;69691;48.172;17.070;2023-07-02T01:58:44;20.90;70.70
14877;DHT22;69691;48.172;17.070;2023-07-02T02:01:10;20.90;70.50
14877;DHT22;69691;48.172;17.070;2023-07-02T02:03:36;20.90;70.60
14877;DHT22;69691;48.172;17.070;2023-07-02T02:06:01;21.00;70.70
14877;DHT22;69691;48.172;17.070;2023-07-02T02:08:27;21.00;70.40
14877;DHT22;69691;48.172;17.070;2023-07-02T02:10:53;20.90;70.50
14877;DHT22;69691;48.172;17.070;2023-07-02T02:13:19;20.80;70.70
14877;DHT22;69691;48.172;17.070;2023-07-02T02:15:45;20.70;70.90
14877;DHT22;69691;48.172;17.070;2023-07-02T02:18:10;20.70;71.00
14877;DHT22;69691;48.172;17.070;2023-07-02T02:20:36;20.70;71.10
14877;DHT22;69691;48.172;17.070;2023-07-02T02:23:02;20.60;71.80
14877;DHT22;69691;48.172;17.070;2023-07-02T02:25:30;20.60;72.20
14877;DHT22;69691;48.172;17.070;2023-07-02T02:27:56;20.60;72.20
14877;DHT22;69691;48.172;17.070;2023-07-02T02:30:22;20.50;72.80
14877;DHT22;69691;48.172;17.070;2023-07-02T02:32:48;20.50;73.50
14877;DHT22;69691;48.172;17.070;2023-07-02T02:35:15;20.50;73.80
14877;DHT22;69691;48.172;17.070;2023-07-02T02:37:41;20.50;73.60
14877;DHT22;69691;48.172;17.070;2023-07-02T02:40:08;20.50;74.20
14877;DHT22;69691;48.172;17.070;2023-07-02T02:42:35;20.40;73.60
14877;DHT22;69691;48.172;17.070;2023-07-02T02:45:03;20.40;74.10
14877;DHT22;69691;48.172;17.070;2023-07-02T02:47:29;20.40;74.50
14877;DHT22;69691;48.172;17.070;2023-07-02T02:49:55;20.30;74.70
14877;DHT22;69691;48.172;17.070;2023-07-02T02:52:21;20.20;75.00
14877;DHT22;69691;48.172;17.070;2023-07-02T02:54:47;20.20;75.50
14877;DHT22;69691;48.172;17.070;2023-07-02T02:57:13;20.10;75.80
14877;DHT22;69691;48.172;17.070;2023-07-02T02:59:39;20.10;75.80
14877;DHT22;69691;48.172;17.070;2023-07-02T03:02:05;20.10;76.10
14877;DHT22;69691;48.172;17.070;2023-07-02T03:04:31;20.00;76.20
14877;DHT22;69691;48.172;17.070;2023-07-02T03:06:57;20.00;77.00
14877;DHT22;69691;48.172;17.070;2023-07-02T03:09:23;20.00;76.70
14877;DHT22;69691;48.172;17.070;2023-07-02T03:11:49;19.90;77.10
14877;DHT22;69691;48.172;17.070;2023-07-02T03:14:15;19.90;77.30
14877;DHT22;69691;48.172;17.070;2023-07-02T03:16:44;19.80;77.60
14877;DHT22;69691;48.172;17.070;2023-07-02T03:19:11;19.80;77.90
14877;DHT22;69691;48.172;17.070;2023-07-02T03:21:43;19.80;78.10
14877;DHT22;69691;48.172;17.070;2023-07-02T03:24:10;19.80;78.60
14877;DHT22;69691;48.172;17.070;2023-07-02T03:26:45;19.80;78.70
14877;DHT22;69691;48.172;17.070;2023-07-02T03:29:11;19.80;79.00
14877;DHT22;69691;48.172;17.070;2023-07-02T03:31:37;19.70;79.20
14877;DHT22;69691;48.172;17.070;2023-07-02T03:34:08;19.70;79.40
14877;DHT22;69691;48.172;17.070;2023-07-02T03:36:35;19.70;79.80
14877;DHT22;69691;48.172;17.070;2023-07-02T03:39:03;19.70;79.70
14877;DHT22;69691;48.172;17.070;2023-07-02T03:41:29;19.70;79.80
14877;DHT22;69691;48.172;17.070;2023-07-02T03:43:55;19.70;80.10
14877;DHT22;69691;48.172;17.070;2023-07-02T03:46:21;19.80;80.10
14877;DHT22;69691;48.172;17.070;2023-07-02T03:48:47;19.70;80.10
14877;DHT22;69691;48.172;17.070;2023-07-02T03:51:13;19.70;80.30
14877;DHT22;69691;48.172;17.070;2023-07-02T03:53:40;19.80;80.60
14877;DHT22;69691;48.172;17.070;2023-07-02T03:56:06;19.70;80.70
14877;DHT22;69691;48.172;17.070;2023-07-02T03:58:32;19.80;80.70
14877;DHT22;69691;48.172;17.070;2023-07-02T04:00:59;19.80;80.60
14877;DHT22;69691;48.172;17.070;2023-07-02T04:03:25;19.90;80.50
14877;DHT22;69691;48.172;17.070;2023-07-02T04:05:51;19.90;80.50
14877;DHT22;69691;48.172;17.070;2023-07-02T04:08:17;20.00;80.60
14877;DHT22;69691;48.172;17.070;2023-07-02T04:10:43;20.00;80.40
14877;DHT22;69691;48.172;17.070;2023-07-02T04:13:09;20.20;80.40
14877;DHT22;69691;48.172;17.070;2023-07-02T04:15:35;20.20;80.00
14877;DHT22;69691;48.172;17.070;2023-07-02T04:18:01;20.30;79.90
14877;DHT22;69691;48.172;17.070;2023-07-02T04:20:27;20.40;79.80
14877;DHT22;69691;48.172;17.070;2023-07-02T04:22:54;20.40;79.40
14877;DHT22;69691;48.172;17.070;2023-07-02T04:25:20;20.50;79.20
14877;DHT22;69691;48.172;17.070;2023-07-02T04:27:46;20.50;79.00
14877;DHT22;69691;48.172;17.070;2023-07-02T04:30:12;20.60;79.00
14877;DHT22;69691;48.172;17.070;2023-07-02T04:32:40;20.70;78.60
14877;DHT22;69691;48.172;17.070;2023-07-02T04:35:09;20.80;78.20
14877;DHT22;69691;48.172;17.070;2023-07-02T04:37:35;21.00;77.50
14877;DHT22;69691;48.172;17.070;2023-07-02T04:40:01;21.20;76.30
14877;DHT22;69691;48.172;17.070;2023-07-02T04:42:29;21.30;75.80
14877;DHT22;69691;48.172;17.070;2023-07-02T04:44:57;21.50;74.70
14877;DHT22;69691;48.172;17.070;2023-07-02T04:47:29;21.70;73.30
14877;DHT22;69691;48.172;17.070;2023-07-02T04:49:56;22.00;72.20
14877;DHT22;69691;48.172;17.070;2023-07-02T04:52:22;22.30;70.10
14877;DHT22;69691;48.172;17.070;2023-07-02T04:54:48;22.50;69.30
14877;DHT22;69691;48.172;17.070;2023-07-02T04:57:13;22.70;68.20
14877;DHT22;69691;48.172;17.070;2023-07-02T04:59:41;23.00;67.00
14877;DHT22;69691;48.172;17.070;2023-07-02T05:02:07;23.20;66.00
14877;DHT22;69691;48.172;17.070;2023-07-02T05:04:33;23.50;65.30
14877;DHT22;69691;48.172;17.070;2023-07-02T05:07:00;23.70;63.70
14877;DHT22;69691;48.172;17.070;2023-07-02T05:09:26;23.80;62.50
14877;DHT22;69691;48.172;17.070;2023-07-02T05:11:52;24.00;61.90
14877;DHT22;69691;48.172;17.070;2023-07-02T05:14:18;24.30;61.20
14877;DHT22;69691;48.172;17.070;2023-07-02T05:16:44;24.70;60.20
14877;DHT22;69691;48.172;17.070;2023-07-02T05:19:09;25.30;59.70
14877;DHT22;69691;48.172;17.070;2023-07-02T05:21:35;26.20;57.90
14877;DHT22;69691;48.172;17.070;2023-07-02T05:24:01;27.10;55.70
14877;DHT22;69691;48.172;17.070;2023-07-02T05:26:27;28.00;53.80
14877;DHT22;69691;48.172;17.070;2023-07-02T05:28:53;28.70;52.00
14877;DHT22;69691;48.172;17.070;2023-07-02T05:31:19;29.40;50.30
14877;DHT22;69691;48.172;17.070;2023-07-02T05:33:45;29.90;48.70
14877;DHT22;69691;48.172;17.070;2023-07-02T05:36:11;30.40;47.50
14877;DHT22;69691;48.172;17.070;2023-07-02T05:38:37;31.00;46.50
14877;DHT22;69691;48.172;17.070;2023-07-02T05:41:03;31.30;45.40
14877;DHT22;69691;48.172;17.070;2023-07-02T05:43:29;31.30;44.50
14877;DHT22;69691;48.172;17.070;2023-07-02T05:45:58;31.00;44.80
14877;DHT22;69691;48.172;17.070;2023-07-02T05:48:27;30.60;46.00
14877;DHT22;69691;48.172;17.070;2023-07-02T05:50:54;30.10;46.10
14877;DHT22;69691;48.172;17.070;2023-07-02T05:53:20;29.70;46.80
14877;DHT22;69691;48.172;17.070;2023-07-02T05:55:46;29.30;47.70
14877;DHT22;69691;48.172;17.070;2023-07-02T05:58:13;28.90;48.40
14877;DHT22;69691;48.172;17.070;2023-07-02T06:00:39;28.60;49.10
14877;DHT22;69691;48.172;17.070;2023-07-02T06:03:07;28.40;49.60
14877;DHT22;69691;48.172;17.070;2023-07-02T06:05:33;28.20;50.30
14877;DHT22;69691;48.172;17.070;2023-07-02T06:07:59;28.10;50.70
14877;DHT22;69691;48.172;17.070;2023-07-02T06:10:25;28.10;51.30
14877;DHT22;69691;48.172;17.070;2023-07-02T06:12:50;28.00;51.50
14877;DHT22;69691;48.172;17.070;2023-07-02T06:15:17;28.00;50.90
14877;DHT22;69691;48.172;17.070;2023-07-02T06:17:43;28.10;51.00
14877;DHT22;69691;48.172;17.070;2023-07-02T06:20:09;28.00;51.80
14877;DHT22;69691;48.172;17.070;2023-07-02T06:22:35;27.90;51.50
14877;DHT22;69691;48.172;17.070;2023-07-02T06:25:01;27.70;52.10
14877;DHT22;69691;48.172;17.070;2023-07-02T06:27:27;27.70;52.20
14877;DHT22;69691;48.172;17.070;2023-07-02T06:29:53;27.80;52.60
14877;DHT22;69691;48.172;17.070;2023-07-02T06:32:19;27.80;52.40
14877;DHT22;69691;48.172;17.070;2023-07-02T06:34:44;27.90;52.40
14877;DHT22;69691;48.172;17.070;2023-07-02T06:37:11;28.00;52.30
14877;DHT22;69691;48.172;17.070;2023-07-02T06:39:37;27.90;52.40
14877;DHT22;69691;48.172;17.070;2023-07-02T06:42:03;27.80;52.50
14877;DHT22;69691;48.172;17.070;2023-07-02T06:44:30;27.60;52.70
14877;DHT22;69691;48.172;17.070;2023-07-02T06:46:56;27.50;53.20
14877;DHT22;69691;48.172;17.070;2023-07-02T06:49:21;27.30;53.10
14877;DHT22;69691;48.172;17.070;2023-07-02T06:51:48;27.00;53.20
14877;DHT22;69691;48.172;17.070;2023-07-02T06:54:13;26.70;53.90
14877;DHT22;69691;48.172;17.070;2023-07-02T06:56:39;26.30;54.50
14877;DHT22;69691;48.172;17.070;2023-07-02T06:59:05;26.10;55.20
14877;DHT22;69691;48.172;17.070;2023-07-02T07:01:31;26.00;55.90
14877;DHT22;69691;48.172;17.070;2023-07-02T07:03:56;25.80;56.20
14877;DHT22;69691;48.172;17.070;2023-07-02T07:06:22;25.90;56.70
14877;DHT22;69691;48.172;17.070;2023-07-02T07:08:48;25.80;56.30
14877;DHT22;69691;48.172;17.070;2023-07-02T07:11:14;25.80;56.20
14877;DHT22;69691;48.172;17.070;2023-07-02T07:13:40;25.80;56.20
14877;DHT22;69691;48.172;17.070;2023-07-02T07:16:06;26.00;56.20
14877;DHT22;69691;48.172;17.070;2023-07-02T07:18:32;26.10;56.10
14877;DHT22;69691;48.172;17.070;2023-07-02T07:20:57;26.20;56.10
14877;DHT22;69691;48.172;17.070;2023-07-02T07:23:23;26.10;56.40
14877;DHT22;69691;48.172;17.070;2023-07-02T07:25:49;26.00;56.70
14877;DHT22;69691;48.172;17.070;2023-07-02T07:28:15;25.90;57.20
14877;DHT22;69691;48.172;17.070;2023-07-02T07:30:42;26.10;57.60
14877;DHT22;69691;48.172;17.070;2023-07-02T07:33:11;26.30;57.20
14877;DHT22;69691;48.172;17.070;2023-07-02T07:35:37;26.50;56.80
14877;DHT22;69691;48.172;17.070;2023-07-02T07:38:03;26.40;56.30
14877;DHT22;69691;48.172;17.070;2023-07-02T07:40:29;26.40;56.60
14877;DHT22;69691;48.172;17.070;2023-07-02T07:42:54;26.50;56.70
14877;DHT22;69691;48.172;17.070;2023-07-02T07:45:20;26.70;56.30
14877;DHT22;69691;48.172;17.070;2023-07-02T07:47:46;27.00;56.30
14877;DHT22;69691;48.172;17.070;2023-07-02T07:50:12;27.10;55.80
14877;DHT22;69691;48.172;17.070;2023-07-02T07:52:39;27.30;55.70
14877;DHT22;69691;48.172;17.070;2023-07-02T07:55:07;27.50;56.20
14877;DHT22;69691;48.172;17.070;2023-07-02T07:57:35;27.60;55.00
14877;DHT22;69691;48.172;17.070;2023-07-02T08:00:02;27.70;54.90
14877;DHT22;69691;48.172;17.070;2023-07-02T08:02:47;27.60;54.80
14877;DHT22;69691;48.172;17.070;2023-07-02T08:05:13;27.60;54.90
14877;DHT22;69691;48.172;17.070;2023-07-02T08:07:40;27.70;54.80
14877;DHT22;69691;48.172;17.070;2023-07-02T08:10:06;28.00;54.40
14877;DHT22;69691;48.172;17.070;2023-07-02T08:12:34;28.40;53.70
14877;DHT22;69691;48.172;17.070;2023-07-02T08:15:00;28.80;52.40
14877;DHT22;69691;48.172;17.070;2023-07-02T08:17:26;29.30;52.20
14877;DHT22;69691;48.172;17.070;2023-07-02T08:19:51;29.80;50.60
14877;DHT22;69691;48.172;17.070;2023-07-02T08:22:17;30.20;49.70
14877;DHT22;69691;48.172;17.070;2023-07-02T08:24:43;30.30;49.00
14877;DHT22;69691;48.172;17.070;2023-07-02T08:27:09;30.30;48.70
14877;DHT22;69691;48.172;17.070;2023-07-02T08:29:39;30.40;48.70
14877;DHT22;69691;48.172;17.070;2023-07-02T08:32:05;30.60;48.70
14877;DHT22;69691;48.172;17.070;2023-07-02T08:34:31;30.90;47.90
14877;DHT22;69691;48.172;17.070;2023-07-02T08:36:57;30.90;47.40
14877;DHT22;69691;48.172;17.070;2023-07-02T08:39:23;30.80;47.90
14877;DHT22;69691;48.172;17.070;2023-07-02T08:41:48;30.60;48.00
14877;DHT22;69691;48.172;17.070;2023-07-02T08:44:17;30.20;48.60
14877;DHT22;69691;48.172;17.070;2023-07-02T08:46:45;29.90;49.10
14877;DHT22;69691;48.172;17.070;2023-07-02T08:49:13;29.60;49.60
14877;DHT22;69691;48.172;17.070;2023-07-02T08:51:38;29.50;50.00
14877;DHT22;69691;48.172;17.070;2023-07-02T08:54:04;29.60;49.70
14877;DHT22;69691;48.172;17.070;2023-07-02T08:56:30;29.60;49.40
14877;DHT22;69691;48.172;17.070;2023-07-02T08:58:56;29.90;49.30
14877;DHT22;69691;48.172;17.070;2023-07-02T09:01:22;30.10;48.70
14877;DHT22;69691;48.172;17.070;2023-07-02T09:03:49;30.20;48.80
14877;DHT22;69691;48.172;17.070;2023-07-02T09:06:17;30.30;48.90
14877;DHT22;69691;48.172;17.070;2023-07-02T09:08:44;30.20;49.20
14877;DHT22;69691;48.172;17.070;2023-07-02T09:11:11;30.20;49.00
14877;DHT22;69691;48.172;17.070;2023-07-02T09:13:52;30.10;49.50
14877;DHT22;69691;48.172;17.070;2023-07-02T09:16:31;30.30;48.60
14877;DHT22;69691;48.172;17.070;2023-07-02T09:19:01;30.60;48.20
14877;DHT22;69691;48.172;17.070;2023-07-02T09:24:16;30.60;47.90
14877;DHT22;69691;48.172;17.070;2023-07-02T09:26:56;30.60;47.80
14877;DHT22;69691;48.172;17.070;2023-07-02T09:31:52;30.20;47.60
14877;DHT22;69691;48.172;17.070;2023-07-02T09:34:18;30.20;47.70
14877;DHT22;69691;48.172;17.070;2023-07-02T09:36:47;30.20;48.00
14877;DHT22;69691;48.172;17.070;2023-07-02T09:39:17;30.20;48.10
14877;DHT22;69691;48.172;17.070;2023-07-02T09:41:45;30.20;48.10
14877;DHT22;69691;48.172;17.070;2023-07-02T09:44:15;30.20;47.90
14877;DHT22;69691;48.172;17.070;2023-07-02T09:46:47;30.10;47.30
14877;DHT22;69691;48.172;17.070;2023-07-02T09:49:17;30.00;48.50
14877;DHT22;69691;48.172;17.070;2023-07-02T09:51:46;30.10;47.50
14877;DHT22;69691;48.172;17.070;2023-07-02T09:54:12;29.80;47.60
14877;DHT22;69691;48.172;17.070;2023-07-02T09:56:39;29.70;48.40
14877;DHT22;69691;48.172;17.070;2023-07-02T09:59:05;29.80;47.60
14877;DHT22;69691;48.172;17.070;2023-07-02T10:01:31;29.90;47.20
14877;DHT22;69691;48.172;17.070;2023-07-02T10:03:57;30.10;47.20
14877;DHT22;69691;48.172;17.070;2023-07-02T10:06:23;30.30;45.70
14877;DHT22;69691;48.172;17.070;2023-07-02T10:08:55;30.40;45.00
14877;DHT22;69691;48.172;17.070;2023-07-02T10:11:33;30.40;45.10
14877;DHT22;69691;48.172;17.070;2023-07-02T10:14:02;30.30;45.50
14877;DHT22;69691;48.172;17.070;2023-07-02T10:16:27;30.40;45.60
14877;DHT22;69691;48.172;17.070;2023-07-02T10:18:54;30.50;45.70
14877;DHT22;69691;48.172;17.070;2023-07-02T10:21:20;30.60;45.50
14877;DHT22;69691;48.172;17.070;2023-07-02T10:23:46;30.90;45.30
14877;DHT22;69691;48.172;17.070;2023-07-02T10:26:17;31.10;44.50
14877;DHT22;69691;48.172;17.070;2023-07-02T10:28:58;31.30;43.90
14877;DHT22;69691;48.172;17.070;2023-07-02T10:31:25;31.60;44.60
14877;DHT22;69691;48.172;17.070;2023-07-02T10:33:51;31.80;43.70
14877;DHT22;69691;48.172;17.070;2023-07-02T10:36:21;31.80;43.60
14877;DHT22;69691;48.172;17.070;2023-07-02T10:38:49;31.60;43.70
14877;DHT22;69691;48.172;17.070;2023-07-02T10:41:29;31.40;44.20
14877;DHT22;69691;48.172;17.070;2023-07-02T10:44:08;31.20;44.80
14877;DHT22;69691;48.172;17.070;2023-07-02T10:46:42;31.10;44.70
14877;DHT22;69691;48.172;17.070;2023-07-02T10:49:11;30.70;45.00
14877;DHT22;69691;48.172;17.070;2023-07-02T10:51:38;30.30;45.70
14877;DHT22;69691;48.172;17.070;2023-07-02T10:54:04;30.00;46.50
14877;DHT22;69691;48.172;17.070;2023-07-02T10:56:32;29.70;47.10
14877;DHT22;69691;48.172;17.070;2023-07-02T10:58:58;29.50;47.90
14877;DHT22;69691;48.172;17.070;2023-07-02T11:01:27;29.20;48.60
14877;DHT22;69691;48.172;17.070;2023-07-02T11:04:04;28.80;49.40
14877;DHT22;69691;48.172;17.070;2023-07-02T11:06:32;28.50;50.60
14877;DHT22;69691;48.172;17.070;2023-07-02T11:09:00;28.20;51.20
14877;DHT22;69691;48.172;17.070;2023-07-02T11:11:26;28.10;51.80
14877;DHT22;69691;48.172;17.070;2023-07-02T11:13:52;28.20;51.80
14877;DHT22;69691;48.172;17.070;2023-07-02T11:16:25;28.40;51.40
14877;DHT22;69691;48.172;17.070;2023-07-02T11:18:53;28.40;51.10
14877;DHT22;69691;48.172;17.070;2023-07-02T11:21:20;28.30;50.90
14877;DHT22;69691;48.172;17.070;2023-07-02T11:23:46;28.30;51.00
14877;DHT22;69691;48.172;17.070;2023-07-02T11:26:12;28.40;51.00
14877;DHT22;69691;48.172;17.070;2023-07-02T11:28:48;28.70;50.40
14877;DHT22;69691;48.172;17.070;2023-07-02T11:31:25;29.20;49.80
14877;DHT22;69691;48.172;17.070;2023-07-02T11:33:52;29.60;49.30
14877;DHT22;69691;48.172;17.070;2023-07-02T11:36:22;29.70;48.40
14877;DHT22;69691;48.172;17.070;2023-07-02T11:38:50;30.10;47.50
14877;DHT22;69691;48.172;17.070;2023-07-02T11:41:17;30.40;47.00
14877;DHT22;69691;48.172;17.070;2023-07-02T11:43:44;30.70;45.90
14877;DHT22;69691;48.172;17.070;2023-07-02T11:46:10;31.00;45.20
14877;DHT22;69691;48.172;17.070;2023-07-02T11:48:36;31.00;44.60
14877;DHT22;69691;48.172;17.070;2023-07-02T11:51:02;30.90;44.50
14877;DHT22;69691;48.172;17.070;2023-07-02T11:53:28;30.70;44.80
14877;DHT22;69691;48.172;17.070;2023-07-02T11:55:53;30.50;45.40
14877;DHT22;69691;48.172;17.070;2023-07-02T11:58:19;30.10;45.60
14877;DHT22;69691;48.172;17.070;2023-07-02T12:00:45;29.80;46.60
14877;DHT22;69691;48.172;17.070;2023-07-02T12:03:11;29.40;46.90
14877;DHT22;69691;48.172;17.070;2023-07-02T12:05:38;29.00;47.80
14877;DHT22;69691;48.172;17.070;2023-07-02T12:08:04;28.60;48.30
14877;DHT22;69691;48.172;17.070;2023-07-02T12:10:29;28.40;49.00
14877;DHT22;69691;48.172;17.070;2023-07-02T12:12:55;28.10;49.70
14877;DHT22;69691;48.172;17.070;2023-07-02T12:15:21;27.90;50.50
14877;DHT22;69691;48.172;17.070;2023-07-02T12:17:47;27.70;51.40
14877;DHT22;69691;48.172;17.070;2023-07-02T12:20:13;27.50;51.00
14877;DHT22;69691;48.172;17.070;2023-07-02T12:22:38;27.60;51.30
14877;DHT22;69691;48.172;17.070;2023-07-02T12:25:05;27.90;51.00
14877;DHT22;69691;48.172;17.070;2023-07-02T12:27:31;28.50;50.20
14877;DHT22;69691;48.172;17.070;2023-07-02T12:29:57;29.00;49.20
14877;DHT22;69691;48.172;17.070;2023-07-02T12:32:23;29.40;48.60
14877;DHT22;69691;48.172;17.070;2023-07-02T12:34:48;29.60;47.70
14877;DHT22;69691;48.172;17.070;2023-07-02T12:37:14;29.70;47.60
14877;DHT22;69691;48.172;17.070;2023-07-02T12:39:43;29.90;47.40
14877;DHT22;69691;48.172;17.070;2023-07-02T12:42:09;30.10;46.80
14877;DHT22;69691;48.172;17.070;2023-07-02T12:44:35;30.00;46.60
14877;DHT22;69691;48.172;17.070;2023-07-02T12:47:01;29.70;47.20
14877;DHT22;69691;48.172;17.070;2023-07-02T12:49:27;29.40;47.50
14877;DHT22;69691;48.172;17.070;2023-07-02T12:51:53;29.00;48.00
14877;DHT22;69691;48.172;17.070;2023-07-02T12:54:18;28.80;48.60
14877;DHT22;69691;48.172;17.070;2023-07-02T12:56:44;28.50;49.10
14877;DHT22;69691;48.172;17.070;2023-07-02T12:59:10;28.30;48.30
14877;DHT22;69691;48.172;17.070;2023-07-02T13:01:36;28.30;48.60
14877;DHT22;69691;48.172;17.070;2023-07-02T13:04:02;28.30;48.30
14877;DHT22;69691;48.172;17.070;2023-07-02T13:06:29;28.30;48.40
14877;DHT22;69691;48.172;17.070;2023-07-02T13:08:55;28.40;48.10
14877;DHT22;69691;48.172;17.070;2023-07-02T13:11:21;28.70;48.40
14877;DHT22;69691;48.172;17.070;2023-07-02T13:13:47;28.90;47.60
14877;DHT22;69691;48.172;17.070;2023-07-02T13:16:13;29.30;47.50
14877;DHT22;69691;48.172;17.070;2023-07-02T13:18:39;29.60;46.70
14877;DHT22;69691;48.172;17.070;2023-07-02T13:21:05;29.80;46.40
14877;DHT22;69691;48.172;17.070;2023-07-02T13:23:31;30.10;46.50
14877;DHT22;69691;48.172;17.070;2023-07-02T13:25:56;30.10;45.80
14877;DHT22;69691;48.172;17.070;2023-07-02T13:28:22;30.00;46.00
14877;DHT22;69691;48.172;17.070;2023-07-02T13:30:50;29.80;46.10
14877;DHT22;69691;48.172;17.070;2023-07-02T13:33:16;29.80;45.60
14877;DHT22;69691;48.172;17.070;2023-07-02T13:35:42;29.80;45.60
14877;DHT22;69691;48.172;17.070;2023-07-02T13:38:09;29.60;46.20
14877;DHT22;69691;48.172;17.070;2023-07-02T13:40:35;29.60;45.50
14877;DHT22;69691;48.172;17.070;2023-07-02T13:43:01;29.50;45.40
14877;DHT22;69691;48.172;17.070;2023-07-02T13:45:28;29.50;45.60
14877;DHT22;69691;48.172;17.070;2023-07-02T13:47:54;29.50;45.40
14877;DHT22;69691;48.172;17.070;2023-07-02T13:50:20;29.30;45.60
14877;DHT22;69691;48.172;17.070;2023-07-02T13:52:46;29.00;45.80
14877;DHT22;69691;48.172;17.070;2023-07-02T13:55:12;28.90;46.20
14877;DHT22;69691;48.172;17.070;2023-07-02T13:57:38;28.70;46.80
14877;DHT22;69691;48.172;17.070;2023-07-02T14:00:04;28.50;47.10
14877;DHT22;69691;48.172;17.070;2023-07-02T14:02:31;28.50;47.30
14877;DHT22;69691;48.172;17.070;2023-07-02T14:04:59;28.50;47.30
14877;DHT22;69691;48.172;17.070;2023-07-02T14:07:26;28.50;47.30
14877;DHT22;69691;48.172;17.070;2023-07-02T14:09:52;28.40;47.70
14877;DHT22;69691;48.172;17.070;2023-07-02T14:12:17;28.50;47.50
14877;DHT22;69691;48.172;17.070;2023-07-02T14:14:43;28.50;47.20
14877;DHT22;69691;48.172;17.070;2023-07-02T14:17:11;28.40;47.20
14877;DHT22;69691;48.172;17.070;2023-07-02T14:19:37;28.20;47.30
14877;DHT22;69691;48.172;17.070;2023-07-02T14:22:03;28.10;47.90
14877;DHT22;69691;48.172;17.070;2023-07-02T14:24:29;28.00;48.20
14877;DHT22;69691;48.172;17.070;2023-07-02T14:26:56;27.90;48.70
14877;DHT22;69691;48.172;17.070;2023-07-02T14:29:21;27.80;48.40
14877;DHT22;69691;48.172;17.070;2023-07-02T14:31:47;27.70;48.20
14877;DHT22;69691;48.172;17.070;2023-07-02T14:34:13;27.70;48.00
14877;DHT22;69691;48.172;17.070;2023-07-02T14:36:39;27.70;48.00
14877;DHT22;69691;48.172;17.070;2023-07-02T14:39:05;27.70;48.00
14877;DHT22;69691;48.172;17.070;2023-07-02T14:41:30;27.50;47.90
14877;DHT22;69691;48.172;17.070;2023-07-02T14:44:02;27.50;48.20
14877;DHT22;69691;48.172;17.070;2023-07-02T14:46:28;27.30;48.50
14877;DHT22;69691;48.172;17.070;2023-07-02T14:48:54;27.20;48.70
14877;DHT22;69691;48.172;17.070;2023-07-02T14:51:20;27.10;49.10
14877;DHT22;69691;48.172;17.070;2023-07-02T14:53:46;27.00;49.40
14877;DHT22;69691;48.172;17.070;2023-07-02T14:56:11;27.00;49.60
14877;DHT22;69691;48.172;17.070;2023-07-02T14:58:37;27.00;49.10
14877;DHT22;69691;48.172;17.070;2023-07-02T15:01:03;26.90;48.80
14877;DHT22;69691;48.172;17.070;2023-07-02T15:03:30;26.90;48.80
14877;DHT22;69691;48.172;17.070;2023-07-02T15:06:09;26.90;49.40
14877;DHT22;69691;48.172;17.070;2023-07-02T15:08:38;26.80;48.90
14877;DHT22;69691;48.172;17.070;2023-07-02T15:11:04;26.90;48.90
14877;DHT22;69691;48.172;17.070;2023-07-02T15:13:30;26.90;48.70
14877;DHT22;69691;48.172;17.070;2023-07-02T15:15:56;26.90;48.70
14877;DHT22;69691;48.172;17.070;2023-07-02T15:18:22;26.90;48.50
14877;DHT22;69691;48.172;17.070;2023-07-02T15:20:51;26.80;48.30
14877;DHT22;69691;48.172;17.070;2023-07-02T15:23:19;26.80;48.10